Latest Weather Observations for Mildura

IDN60801

Issued at 3:05 pm EDT Friday 31 October 2014 (issued every 30 minutes, with the page automatically refreshed every 10 minutes)

About weather observations | Map of weather stations | Latest weather observations for NSW | Other Formats
Station Details ID: 076031 Name: MILDURA AIRPORT Lat: -34.24 Lon: 142.09 Height: 50.0 m
Data from the previous 72 hours. | See also: Recent months at Mildura
Date/Time
EDT
Temp
°C
App
Temp
°C
Dew
Point
Rel
Hum
%
Delta-T
°C
Wind Press
QNH
hPa
Press
MSL
hPa
Rain
since 9 am
mm
Dir
 
Spd
km/h
Gust
km/h
Spd
kts
Gust
kts
31/03:00pm 37.3 30.4 -2.4 8 19.3 NW 24 35 13 19 1002.5 1002.5 0.0
31/02:42pm 36.6 28.9 -3.0 8 18.9 NW 28 50 15 27 1003.1 1003.0 0.0
31/02:30pm 36.4 29.4 -3.1 8 18.8 NNW 24 39 13 21 1003.1 1003.0 0.0
31/02:00pm 35.7 28.5 -2.0 9 18.2 NNW 26 43 14 23 1003.7 1003.6 0.0
31/01:30pm 35.5 27.9 -2.2 9 18.1 NNW 28 41 15 22 1004.2 1004.1 0.0
31/01:00pm 33.7 26.7 -0.8 11 16.8 N 26 39 14 21 1005.0 1004.9 0.0
31/12:30pm 33.0 27.2 -0.2 12 16.2 N 20 35 11 19 1005.5 1005.4 0.0
31/12:00pm 32.4 26.5 -0.6 12 15.9 N 20 30 11 16 1006.0 1005.9 0.0
31/11:30am 31.8 25.4 1.0 14 15.2 N 24 32 13 17 1006.5 1006.4 0.0
31/11:00am 29.6 22.8 1.1 16 13.9 N 26 35 14 19 1007.1 1007.0 0.0
31/10:30am 27.7 21.0 1.2 18 12.7 NNE 26 35 14 19 1007.8 1007.7 0.0
31/10:00am 26.3 20.7 0.9 19 12.0 NE 20 28 11 15 1008.2 1008.1 0.0
31/09:30am 24.6 19.1 0.8 21 11.1 NE 19 28 10 15 1008.5 1008.4 0.0
31/09:00am 22.1 17.9 1.7 26 9.5 ENE 13 19 7 10 1008.8 1008.7 0.0
31/08:30am 20.1 16.8 2.5 31 8.2 ENE 9 11 5 6 1009.0 1008.9 0.0
31/08:00am 19.0 16.0 2.0 32 7.8 ENE 7 13 4 7 1009.2 1009.1 0.0
31/07:30am 17.7 14.4 2.5 36 6.9 E 9 11 5 6 1009.3 1009.2 0.0
31/07:00am 17.2 13.5 2.4 37 6.7 E 11 13 6 7 1009.3 1009.2 0.0
31/06:30am 17.0 13.6 1.8 36 6.8 E 9 13 5 7 1009.5 1009.4 0.0
31/06:00am 17.0 13.6 1.8 36 6.8 E 9 13 5 7 1009.4 1009.3 0.0
31/05:30am 17.2 13.8 2.0 36 6.8 ESE 9 13 5 7 1009.4 1009.3 0.0
31/05:00am 17.2 14.2 2.0 36 6.9 ESE 7 9 4 5 1009.4 1009.3 0.0
31/04:30am 17.1 13.7 1.9 36 6.8 ESE 9 13 5 7 1009.3 1009.2 0.0
31/04:00am 16.2 12.8 1.9 38 6.4 SSE 9 9 5 5 1009.4 1009.3 0.0
31/03:30am 15.5 12.3 0.9 37 6.3 SE 7 11 4 6 1009.7 1009.6 0.0
31/03:00am 16.2 12.6 0.7 35 6.7 S 9 13 5 7 1009.8 1009.7 0.0
31/02:30am 16.2 12.7 1.5 37 6.5 S 9 13 5 7 1010.0 1009.9 0.0
31/02:00am 16.2 12.8 1.9 38 6.4 S 9 11 5 6 1010.3 1010.2 0.0
31/01:30am 16.2 13.2 1.9 38 6.4 S 7 9 4 5 1010.9 1010.8 0.0
31/01:00am 16.5 13.3 1.0 35 6.8 SSE 7 9 4 5 1011.1 1011.0 0.0
31/12:30am 17.4 14.3 1.4 34 7.1 S 7 9 4 5 1011.3 1011.2 0.0
31/12:00am 18.3 15.2 1.3 32 7.6 S 7 9 4 5 1011.5 1011.4 0.0
 
Date/Time
EDT
Temp
°C
App
Temp
°C
Dew
Point
Rel
Hum
%
Delta-T
°C
Wind Press
QNH
hPa
Press
MSL
hPa
Rain
since 9 am
mm
Dir
 
Spd
km/h
Gust
km/h
Spd
kts
Gust
kts
30/11:30pm 19.0 15.5 1.1 30 8.0 SSE 9 11 5 6 1011.5 1011.4 0.0
30/11:00pm 20.2 16.7 1.1 28 8.7 S 9 11 5 6 1011.6 1011.5 0.0
30/10:30pm 20.1 17.1 2.0 30 8.4 S 7 9 4 5 1011.7 1011.6 0.0
30/10:00pm 21.0 18.0 1.8 28 8.9 SSE 7 9 4 5 1011.6 1011.5 0.0
30/09:30pm 22.4 19.2 0.9 24 9.9 S 7 9 4 5 1011.6 1011.5 0.0
30/09:00pm 23.6 20.5 1.3 23 10.4 SSW 7 7 4 4 1011.7 1011.6 0.0
30/08:30pm 25.1 22.0 1.3 21 11.2 SW 7 9 4 5 1011.8 1011.7 0.0
30/08:00pm 26.9 23.3 0.6 18 12.4 SW 9 11 5 6 1011.5 1011.4 0.0
30/07:30pm 28.6 24.3 1.2 17 13.3 WSW 13 19 7 10 1011.1 1011.0 0.0
30/07:00pm 30.0 26.2 1.5 16 14.0 W 11 20 6 11 1011.0 1010.9 0.0
30/06:30pm 30.4 27.0 1.8 16 14.2 W 9 15 5 8 1010.8 1010.7 0.0
30/06:00pm 30.9 27.6 2.2 16 14.4 WNW 9 13 5 7 1010.8 1010.7 0.0
30/05:30pm 31.0 27.1 1.4 15 14.6 W 11 20 6 11 1011.0 1010.9 0.0
30/05:00pm 30.6 25.7 1.9 16 14.3 W 17 24 9 13 1011.2 1011.1 0.0
30/04:30pm 30.8 26.1 2.9 17 14.1 W 17 30 9 16 1011.3 1011.2 0.0
30/04:00pm 30.2 26.4 4.0 19 13.5 W 13 20 7 11 1011.6 1011.5 0.0
30/03:30pm 30.0 24.9 3.1 18 13.6 WNW 19 24 10 13 1012.0 1011.9 0.0
30/03:00pm 30.0 26.1 5.3 21 12.9 NNW 15 24 8 13 1012.5 1012.4 0.0
30/02:30pm 29.1 25.5 5.2 22 12.4 W 13 22 7 12 1013.0 1013.0 0.0
30/02:00pm 28.6 25.5 5.5 23 12.0 NW 11 19 6 10 1013.4 1013.4 0.0
30/01:30pm 28.1 25.5 6.2 25 11.5 W 9 17 5 9 1013.8 1013.8 0.0
30/01:00pm 26.7 24.3 7.2 29 10.4 NW 9 19 5 10 1014.1 1014.1 0.0
30/12:37pm 26.6 24.0 7.6 30 10.2 S 11 17 6 9 1014.4 1014.4 0.0
30/12:30pm 26.1 23.7 7.2 30 10.0 S 9 17 5 9 1014.5 1014.5 0.0
30/12:00pm 24.7 22.3 6.9 32 9.3 SSE 9 19 5 10 1015.0 1015.0 0.0
30/11:30am 23.8 22.1 7.4 35 8.6 S 6 13 3 7 1015.4 1015.4 0.0
30/11:00am 22.4 20.6 8.1 40 7.5 S 7 13 4 7 1015.8 1015.8 0.0
30/10:30am 21.2 18.5 8.8 45 6.6 SSE 13 20 7 11 1016.1 1016.1 0.0
30/10:00am 20.1 17.1 9.1 49 5.8 S 15 24 8 13 1016.2 1016.2 0.0
30/09:30am 19.4 17.2 9.3 52 5.3 SE 11 17 6 9 1016.0 1016.0 0.0
30/09:00am 17.9 16.0 9.0 56 4.6 ESE 9 13 5 7 1015.9 1015.9 0.0
30/08:30am 16.3 13.9 8.8 61 3.9 S 11 15 6 8 1016.0 1016.0 0.0
30/08:00am 15.0 12.2 8.7 66 3.2 S 13 22 7 12 1016.1 1016.1 0.0
30/07:30am 13.6 11.1 8.0 69 2.8 SSW 11 15 6 8 1015.7 1015.7 0.0
30/07:00am 12.6 10.7 7.7 72 2.4 SSW 7 11 4 6 1015.6 1015.6 0.0
30/06:30am 12.6 10.8 7.3 70 2.6 S 6 7 3 4 1015.2 1015.2 0.0
30/06:00am 13.8 11.9 7.6 66 3.1 S 7 9 4 5 1015.0 1015.0 0.0
30/05:30am 14.4 12.2 7.7 64 3.3 S 9 13 5 7 1014.6 1014.6 0.0
30/05:00am 15.3 13.1 7.8 61 3.7 S 9 13 5 7 1014.6 1014.6 0.0
30/04:30am 16.1 13.5 7.8 58 4.2 S 11 19 6 10 1014.6 1014.6 0.0
30/04:00am 16.9 13.9 7.8 55 4.6 S 13 19 7 10 1014.7 1014.7 0.0
30/03:30am 17.4 14.0 7.7 53 4.9 S 15 22 8 12 1015.1 1015.1 0.0
30/03:00am 17.5 14.0 7.3 51 5.1 S 15 20 8 11 1015.1 1015.1 0.0
30/02:30am 17.6 14.0 6.8 49 5.4 S 15 20 8 11 1015.2 1015.2 0.0
30/02:00am 17.7 14.2 5.3 44 6.0 SSW 13 20 7 11 1015.2 1015.2 0.0
30/01:30am 17.6 14.0 3.1 38 6.7 SW 11 17 6 9 1015.3 1015.3 0.0
30/01:00am 16.5 13.2 4.5 45 5.7 SSW 11 13 6 7 1015.2 1015.2 0.0
30/12:30am 16.1 14.8 4.2 45 5.6 CALM 0 0 0 0 1015.0 1015.0 0.0
30/12:00am 17.2 16.2 5.5 46 5.7 CALM 0 0 0 0 1015.1 1015.1 0.0
 
Date/Time
EDT
Temp
°C
App
Temp
°C
Dew
Point
Rel
Hum
%
Delta-T
°C
Wind Press
QNH
hPa
Press
MSL
hPa
Rain
since 9 am
mm
Dir
 
Spd
km/h
Gust
km/h
Spd
kts
Gust
kts
29/11:30pm 17.5 16.5 5.4 45 5.9 CALM 0 0 0 0 1015.1 1015.1 0.0
29/11:00pm 17.6 15.6 6.2 47 5.6 E 6 7 3 4 1015.2 1015.2 0.0
29/10:30pm 17.5 16.2 6.1 47 5.6 E 2 7 1 4 1015.2 1015.2 0.0
29/10:00pm 18.2 16.8 3.7 38 6.8 CALM 0 0 0 0 1015.3 1015.3 0.0
29/09:30pm 19.3 17.8 3.1 34 7.6 CALM 0 0 0 0 1015.4 1015.4 0.0
29/09:00pm 20.1 18.7 3.8 34 7.8 CALM 0 0 0 0 1015.4 1015.4 0.0
29/08:30pm 21.5 20.2 4.1 32 8.4 CALM 0 0 0 0 1015.4 1015.4 0.0
29/08:00pm 23.6 21.4 3.5 27 9.8 W 4 7 2 4 1015.3 1015.3 0.0
29/07:30pm 25.4 21.9 3.4 24 10.8 WNW 11 17 6 9 1015.1 1015.1 0.0
29/07:00pm 26.1 22.2 3.4 23 11.2 W 13 19 7 10 1015.0 1015.0 0.0
29/06:30pm 26.5 21.7 2.4 21 11.7 W 17 26 9 14 1014.9 1014.9 0.0
29/06:00pm 27.0 22.1 2.1 20 12.1 WNW 17 28 9 15 1014.9 1014.9 0.0
29/05:30pm 27.2 22.3 2.3 20 12.2 WNW 17 24 9 13 1014.9 1014.9 0.0
29/05:00pm 27.2 23.4 3.7 22 11.8 WNW 13 24 7 13 1015.1 1015.1 0.0
29/04:30pm 26.8 23.0 4.0 23 11.5 WNW 13 24 7 13 1015.3 1015.3 0.0
29/04:00pm 26.4 22.8 4.8 25 11.0 NW 13 26 7 14 1015.8 1015.8 0.0
29/03:30pm 25.6 22.8 5.2 27 10.4 W 9 20 5 11 1016.2 1016.2 0.0
29/03:00pm 25.1 22.1 5.8 29 9.9 NW 11 20 6 11 1016.7 1016.7 0.0
29/02:30pm 24.7 21.9 6.9 32 9.3 NNW 11 24 6 13 1017.4 1017.3 0.0
29/02:00pm 22.9 20.1 5.3 32 8.8 WNW 9 17 5 9 1017.8 1017.7 0.0
29/01:30pm 23.2 20.3 6.5 34 8.6 NNW 11 19 6 10 1018.3 1018.2 0.0
29/01:00pm 21.7 19.7 7.2 39 7.5 NW 7 15 4 8 1018.9 1018.8 0.0
29/12:30pm 21.2 18.5 7.4 41 7.1 N 11 19 6 10 1019.4 1019.3 0.0
29/12:00pm 20.1 17.7 6.8 42 6.7 NW 9 19 5 10 1019.9 1019.8 0.0
29/11:30am 19.5 17.5 7.3 45 6.2 NNE 7 13 4 7 1020.3 1020.2 0.0
29/11:00am 18.0 16.0 7.1 49 5.5 SSE 7 13 4 7 1020.7 1020.6 0.0
29/10:30am 17.7 16.3 7.2 50 5.3 ENE 4 11 2 6 1021.0 1020.9 0.0
29/10:00am 16.7 14.8 7.6 55 4.6 NE 7 13 4 7 1021.1 1021.0 0.0
29/09:30am 16.1 13.8 7.6 57 4.3 SSE 9 15 5 8 1021.2 1021.1 0.0
29/09:00am 15.1 12.5 7.6 61 3.7 SE 11 15 6 8 1021.3 1021.2 0.0
29/08:30am 13.9 11.5 7.2 64 3.3 SSE 9 15 5 8 1021.1 1021.0 0.0
29/08:00am 12.0 9.9 6.7 70 2.5 SSW 7 11 4 6 1021.1 1021.0 0.0
29/07:30am 10.8 9.3 6.6 75 2.0 WSW 4 7 2 4 1020.9 1020.8 0.0
29/07:00am 9.0 6.9 5.9 81 1.4 SW 6 7 3 4 1020.6 1020.5 0.0
29/06:30am 8.6 7.6 5.7 82 1.3 CALM 0 0 0 0 1020.2 1020.1 0.0
29/06:00am 9.1 7.0 6.0 81 1.4 SW 6 6 3 3 1019.8 1019.7 0.0
29/05:30am 9.4 8.5 6.1 80 1.5 CALM 0 0 0 0 1019.6 1019.5 0.0
29/05:00am 9.9 7.9 6.1 77 1.8 WSW 6 7 3 4 1019.3 1019.2 0.0
29/04:30am 10.8 8.8 6.4 74 2.1 SSW 6 7 3 4 1019.0 1018.9 0.0
29/04:00am 11.8 9.7 6.5 70 2.5 S 7 9 4 5 1018.9 1018.8 0.0
29/03:30am 12.7 10.6 6.5 66 3.0 S 7 11 4 6 1018.9 1018.8 0.0
29/03:00am 12.8 10.5 7.3 69 2.7 S 9 13 5 7 1018.6 1018.5 0.0
29/02:30am 13.3 10.9 7.1 66 3.0 S 9 13 5 7 1018.8 1018.7 0.0
29/02:00am 13.7 11.7 7.2 65 3.2 S 7 11 4 6 1018.8 1018.7 0.0
29/01:30am 14.5 11.5 7.5 63 3.5 SSW 13 19 7 10 1019.0 1018.9 0.0
29/01:00am 14.8 12.5 7.6 62 3.6 SSW 9 13 5 7 1019.1 1019.0 0.0
29/12:30am 15.9 12.9 7.9 59 4.0 S 13 20 7 11 1019.0 1018.9 0.0
29/12:00am 16.4 13.1 7.9 57 4.3 S 15 22 8 12 1018.9 1018.8 0.0
 
Date/Time
EDT
Temp
°C
App
Temp
°C
Dew
Point
Rel
Hum
%
Delta-T
°C
Wind Press
QNH
hPa
Press
MSL
hPa
Rain
since 9 am
mm
Dir
 
Spd
km/h
Gust
km/h
Spd
kts
Gust
kts
28/11:30pm 17.0 13.7 8.2 56 4.5 S 15 22 8 12 1018.9 1018.8 0.0
28/11:00pm 17.4 14.1 8.0 54 4.8 SSW 15 22 8 12 1018.9 1018.8 0.0
28/10:30pm 17.8 14.7 7.2 50 5.3 SSW 13 22 7 12 1018.8 1018.7 0.0
28/10:00pm 18.2 15.4 7.0 48 5.6 SSW 11 15 6 8 1018.5 1018.4 0.0
28/09:30pm 19.3 16.5 7.1 45 6.2 S 11 19 6 10 1018.2 1018.1 0.0
28/09:00pm 20.0 16.9 7.1 43 6.6 SSW 13 20 7 11 1017.7 1017.6 0.0
28/08:30pm 20.9 16.8 6.4 39 7.3 SSW 17 26 9 14 1017.3 1017.2 0.0
28/08:00pm 22.0 18.5 5.4 34 8.3 SSW 13 26 7 14 1016.9 1016.8 0.0
28/07:30pm 23.0 18.7 5.4 32 8.8 SW 17 33 9 18 1016.4 1016.4 0.0
28/07:00pm 24.0 20.0 4.9 29 9.6 SW 15 24 8 13 1016.0 1016.0 0.0
28/06:30pm 24.2 18.8 4.6 28 9.8 WSW 22 37 12 20 1015.8 1015.8 0.0
28/06:00pm 24.5 19.8 5.3 29 9.7 WSW 19 28 10 15 1015.7 1015.7 0.0
28/05:30pm 24.3 19.5 5.6 30 9.5 WSW 20 32 11 17 1015.6 1015.6 0.0
28/05:00pm 24.7 19.2 6.0 30 9.6 SW 24 32 13 17 1015.7 1015.7 0.0
28/04:30pm 24.3 19.5 5.6 30 9.5 WSW 20 41 11 22 1016.0 1016.0 0.0
28/04:00pm 24.1 19.9 5.5 30 9.4 WSW 17 30 9 16 1016.2 1016.2 0.0
28/03:30pm 23.9 18.8 5.8 31 9.2 W 22 32 12 17 1016.7 1016.7 0.0

Other Formats:

Comma delimited format used in spreadsheet applications
http://www.bom.gov.au/fwo/IDN60801/IDN60801.94693.axf

JavaScript Object Notation format (JSON) in row-major order
http://www.bom.gov.au/fwo/IDN60801/IDN60801.94693.json